首页
METAR-TAF:

METAR-TAF

机场 :

Mackenzie, 不列颠哥伦比亚, 加拿大

纬度: 55-18N, 经度: 123-08W, 海拔: 695米

当前天气观测

该预报发布于1小时和0分钟前的21:00 UTC
风速6节,风向西,在西南西北之间变化
温度 23°C
湿度 23%
气压 1016 hPa
能見度: 14.5公里
天空无云

METAR: CYZY 262100Z AUTO 26006KT 220V310 9SM CLR 23/01 A3000 RMK SLP171 DENSITY ALT 3500FT

时间: 15:00 (22:00 UTC)

预报

该预报发布于3小时和22分钟前的18:38 UTC
预报有效从26日的 19点(UTC)到 27日的 07点(UTC)
风速3节,风向多变
能見度: 10公里
天空无云

TAF: CYZY 261838Z 2619/2707 VRB03KT P6SM SKC RMK FCST BASED ON AUTO OBS. NXT FCST BY 270100Z

超过4000个机场的气象观测和天气预报(METAR&TAF报告)。

可查询的气象台以黄色和红色小点在地图上表示。

将鼠标移到小点上方,可查看气象台名称。

然后点击查看天气观测和预报。

如需切换地图:点击带黑十字的绿色按钮放大地图;点击带横线的绿色按钮缩小地图;或者点击绿色箭头查看邻近地区的地图。


METAR-TAF: